createdAt,value
2018-01-19T00:01:22.064Z,85.99
2018-01-19T00:03:48.236Z,85.74
2018-01-19T00:06:14.421Z,86.32
2018-01-19T00:08:40.588Z,85.90
2018-01-19T00:11:06.821Z,84.87
2018-01-19T00:13:32.950Z,85.03
2018-01-19T00:15:59.106Z,85.38
2018-01-19T00:18:25.313Z,83.40
2018-01-19T00:20:51.574Z,84.51
2018-01-19T00:23:17.857Z,83.62
2018-01-19T00:25:44.118Z,84.37
2018-01-19T00:28:10.354Z,83.38
2018-01-19T00:30:36.568Z,82.90
2018-01-19T00:33:02.822Z,83.30
2018-01-19T00:35:29.048Z,83.72
2018-01-19T00:37:55.308Z,84.43
2018-01-19T00:40:21.505Z,83.21
2018-01-19T00:42:47.710Z,83.80
2018-01-19T00:45:13.862Z,84.55
2018-01-19T00:47:40.071Z,85.12
2018-01-19T00:50:06.262Z,85.49
2018-01-19T00:52:32.436Z,85.75
2018-01-19T00:54:58.588Z,85.84
2018-01-19T00:57:25.672Z,85.68
2018-01-19T00:59:51.918Z,85.91
2018-01-19T01:02:18.263Z,86.24
2018-01-19T01:04:44.485Z,87.09
2018-01-19T01:07:10.666Z,87.24
2018-01-19T01:09:36.939Z,87.73
2018-01-19T01:12:03.200Z,87.71
2018-01-19T01:14:29.368Z,87.59
2018-01-19T01:16:55.565Z,87.21
2018-01-19T01:19:21.759Z,87.31
2018-01-19T01:21:47.989Z,87.02
2018-01-19T01:24:14.152Z,86.63
2018-01-19T01:26:40.295Z,87.33
2018-01-19T01:29:06.417Z,87.93
2018-01-19T01:31:32.623Z,87.59
2018-01-19T01:33:58.773Z,87.92
2018-01-19T01:36:24.981Z,87.54
2018-01-19T01:38:51.135Z,87.40
2018-01-19T01:41:17.399Z,87.13
2018-01-19T01:43:43.582Z,86.38
2018-01-19T01:46:09.747Z,86.44
2018-01-19T01:48:35.970Z,86.53
2018-01-19T01:51:02.207Z,86.33
2018-01-19T01:53:28.364Z,87.16
2018-01-19T01:55:54.517Z,85.80
2018-01-19T01:58:20.703Z,85.83
2018-01-19T02:00:46.855Z,86.52
2018-01-19T02:03:13.108Z,86.87
2018-01-19T02:05:39.385Z,87.28
2018-01-19T02:08:05.541Z,86.99
2018-01-19T02:10:31.673Z,87.67
2018-01-19T02:12:57.897Z,87.82
2018-01-19T02:15:24.146Z,87.46
2018-01-19T02:17:50.316Z,87.00
2018-01-19T02:20:16.504Z,87.61
2018-01-19T02:22:42.715Z,86.49
2018-01-19T02:25:08.888Z,86.01
2018-01-19T02:27:35.042Z,87.06
2018-01-19T02:30:01.238Z,85.47
2018-01-19T02:32:27.461Z,85.92
2018-01-19T02:34:54.599Z,84.49
2018-01-19T02:37:20.759Z,84.81
2018-01-19T02:39:46.901Z,84.49
2018-01-19T02:42:13.180Z,84.21
2018-01-19T02:44:39.307Z,84.59
2018-01-19T02:47:05.457Z,83.75
2018-01-19T02:49:31.893Z,84.85
2018-01-19T02:51:58.206Z,83.29
2018-01-19T02:54:24.339Z,84.57
2018-01-19T02:56:51.262Z,84.90
2018-01-19T02:59:17.508Z,84.57
2018-01-19T03:01:43.833Z,83.12
2018-01-19T03:04:09.978Z,84.18
2018-01-19T03:06:36.794Z,84.22
2018-01-19T03:09:03.047Z,83.96
2018-01-19T03:11:29.804Z,84.60
2018-01-19T03:13:55.995Z,85.30
2018-01-19T03:16:22.238Z,84.87
2018-01-19T03:18:48.435Z,84.49
2018-01-19T03:21:14.611Z,84.44
2018-01-19T03:23:40.838Z,84.06
2018-01-19T03:26:07.004Z,84.15
2018-01-19T03:28:33.134Z,83.55
2018-01-19T03:30:59.331Z,83.78
2018-01-19T03:33:25.556Z,84.34
2018-01-19T03:35:51.757Z,84.39
2018-01-19T03:38:17.952Z,84.34
2018-01-19T03:40:44.116Z,84.60
2018-01-19T03:43:10.450Z,84.21
2018-01-19T03:45:36.676Z,84.03
2018-01-19T03:48:02.856Z,84.33
2018-01-19T03:50:29.023Z,83.49
2018-01-19T03:52:55.307Z,84.49
2018-01-19T03:55:21.505Z,84.22
2018-01-19T03:57:47.671Z,84.23
2018-01-19T04:00:13.881Z,84.04
2018-01-19T04:02:40.109Z,84.09
2018-01-19T04:05:06.273Z,83.32
2018-01-19T04:07:32.438Z,84.14
2018-01-19T04:09:58.581Z,84.41
2018-01-19T04:12:24.812Z,84.63
2018-01-19T04:14:50.993Z,84.38
2018-01-19T04:17:17.150Z,84.68
2018-01-19T04:19:44.342Z,83.78
2018-01-19T04:22:10.554Z,84.71
2018-01-19T04:24:36.685Z,84.84
2018-01-19T04:27:02.870Z,84.55
2018-01-19T04:29:29.062Z,84.90
2018-01-19T04:31:55.267Z,85.00
2018-01-19T04:34:21.751Z,84.99
2018-01-19T04:36:47.938Z,85.14
2018-01-19T04:39:14.116Z,84.72
2018-01-19T04:41:40.401Z,84.88
2018-01-19T04:44:06.589Z,85.27
2018-01-19T04:46:32.726Z,85.58
2018-01-19T04:48:59.028Z,85.25
2018-01-19T04:51:25.232Z,85.47
2018-01-19T04:53:51.431Z,85.76
2018-01-19T04:56:18.646Z,85.40
2018-01-19T04:58:45.785Z,85.69
2018-01-19T05:01:11.979Z,85.37
2018-01-19T05:03:38.193Z,85.43
2018-01-19T05:06:04.377Z,85.63
2018-01-19T05:08:31.464Z,85.63
2018-01-19T05:10:57.585Z,85.73
2018-01-19T05:13:23.826Z,85.94
2018-01-19T05:15:50.006Z,85.77
2018-01-19T05:18:23.102Z,85.92
2018-01-19T05:20:49.306Z,85.95
2018-01-19T05:23:15.538Z,86.42
2018-01-19T05:25:41.672Z,86.75
2018-01-19T05:28:07.832Z,87.11
2018-01-19T05:30:34.036Z,87.18
2018-01-19T05:33:00.280Z,87.39
2018-01-19T05:35:26.429Z,87.42
2018-01-19T05:37:52.603Z,87.43
2018-01-19T05:40:18.799Z,87.29
2018-01-19T05:42:45.223Z,87.18
2018-01-19T05:45:11.385Z,87.03
2018-01-19T05:47:37.531Z,86.90
2018-01-19T05:50:03.770Z,87.00
2018-01-19T05:52:29.920Z,86.98
2018-01-19T05:54:56.159Z,87.03
2018-01-19T05:57:22.358Z,87.40
2018-01-19T05:59:48.511Z,87.21
2018-01-19T06:02:14.752Z,87.12
2018-01-19T06:04:40.954Z,87.11
2018-01-19T06:07:07.145Z,87.36
2018-01-19T06:09:33.364Z,87.58
2018-01-19T06:11:59.570Z,87.65
2018-01-19T06:14:25.740Z,87.55
2018-01-19T06:16:51.918Z,87.90
2018-01-19T06:19:18.133Z,88.01
2018-01-19T06:21:44.307Z,87.93
2018-01-19T06:24:10.463Z,88.02
2018-01-19T06:26:36.697Z,88.07
2018-01-19T06:29:02.916Z,88.13
2018-01-19T06:31:29.064Z,88.19
2018-01-19T06:33:55.252Z,88.31
2018-01-19T06:36:21.474Z,88.42
2018-01-19T06:38:47.702Z,88.35
2018-01-19T06:41:13.862Z,88.29
2018-01-19T06:43:40.072Z,88.26
2018-01-19T06:46:06.196Z,88.22
2018-01-19T06:48:32.431Z,88.32
2018-01-19T06:50:58.592Z,88.28
2018-01-19T06:53:24.750Z,88.30
2018-01-19T06:55:51.013Z,88.54
2018-01-19T06:58:17.228Z,88.64
2018-01-19T07:00:43.419Z,88.97
2018-01-19T07:03:09.701Z,89.30
2018-01-19T07:05:35.870Z,89.38
2018-01-19T07:08:01.995Z,89.50
2018-01-19T07:10:28.265Z,89.58
2018-01-19T07:12:54.462Z,89.87
2018-01-19T07:15:20.615Z,89.91
2018-01-19T07:17:47.255Z,89.94
2018-01-19T07:20:15.365Z,89.85
2018-01-19T07:22:41.516Z,89.71
2018-01-19T07:25:07.760Z,89.50
2018-01-19T07:27:34.029Z,89.33
2018-01-19T07:30:00.258Z,89.28
2018-01-19T07:32:26.490Z,89.38
2018-01-19T07:34:52.835Z,89.22
2018-01-19T07:37:18.985Z,89.22
2018-01-19T07:39:45.341Z,89.27
2018-01-19T07:42:11.573Z,89.52
2018-01-19T07:44:37.756Z,89.39
2018-01-19T07:47:03.914Z,89.23
2018-01-19T07:49:30.151Z,89.18
2018-01-19T07:51:56.371Z,89.11
2018-01-19T07:54:22.510Z,89.01
2018-01-19T07:56:48.700Z,89.15
2018-01-19T07:59:14.907Z,89.18
2018-01-19T08:01:41.243Z,89.21
2018-01-19T08:04:07.478Z,89.18
2018-01-19T08:06:33.634Z,88.98
2018-01-19T08:08:59.847Z,88.99
2018-01-19T08:11:26.116Z,89.07
2018-01-19T08:13:52.341Z,89.24
2018-01-19T08:16:18.545Z,89.07
2018-01-19T08:18:44.746Z,89.02
2018-01-19T08:21:10.884Z,89.02
2018-01-19T08:23:37.080Z,89.05
2018-01-19T08:26:03.258Z,89.02
2018-01-19T08:28:29.461Z,89.09
2018-01-19T08:30:55.629Z,89.21
2018-01-19T08:33:21.794Z,89.22
2018-01-19T08:35:47.953Z,89.01
2018-01-19T08:38:14.107Z,88.98
2018-01-19T08:40:40.320Z,88.90
2018-01-19T08:43:06.546Z,88.92
2018-01-19T08:45:32.683Z,88.89
2018-01-19T08:47:58.871Z,88.81
2018-01-19T08:50:25.053Z,88.84
2018-01-19T08:52:51.195Z,88.63
2018-01-19T08:55:17.415Z,88.51
2018-01-19T08:57:43.602Z,88.11
2018-01-19T09:00:10.086Z,88.02
2018-01-19T09:02:36.262Z,87.80
2018-01-19T09:05:02.517Z,87.67
2018-01-19T09:07:29.679Z,87.30
2018-01-19T09:09:55.904Z,87.36
2018-01-19T09:12:22.091Z,87.51
2018-01-19T09:14:48.307Z,87.43
2018-01-19T09:17:14.473Z,87.26
2018-01-19T09:19:40.681Z,87.47
2018-01-19T09:22:06.841Z,87.38
2018-01-19T09:24:32.998Z,87.36
2018-01-19T09:26:59.196Z,87.42
2018-01-19T09:29:25.594Z,86.93
2018-01-19T09:31:51.767Z,86.02
2018-01-19T09:34:17.950Z,85.32
2018-01-19T09:36:44.146Z,84.98
2018-01-19T09:39:10.372Z,84.37
2018-01-19T09:41:36.528Z,84.29
2018-01-19T09:44:02.809Z,84.51
2018-01-19T09:46:29.232Z,84.66
2018-01-19T09:48:55.434Z,84.98
2018-01-19T09:51:21.657Z,85.84
2018-01-19T09:53:47.915Z,85.71
2018-01-19T09:56:14.065Z,85.41
2018-01-19T09:58:40.217Z,85.02
2018-01-19T10:01:06.603Z,85.42
2018-01-19T10:03:32.769Z,85.36
2018-01-19T10:05:58.924Z,85.40
2018-01-19T10:08:25.100Z,85.52
2018-01-19T10:10:51.302Z,84.95
2018-01-19T10:13:17.493Z,85.34
2018-01-19T10:15:43.644Z,85.02
2018-01-19T10:18:09.778Z,85.37
2018-01-19T10:20:36.012Z,85.55
2018-01-19T10:23:02.212Z,86.01
2018-01-19T10:25:28.385Z,85.68
2018-01-19T10:27:54.543Z,85.73
2018-01-19T10:30:20.779Z,85.21
2018-01-19T10:32:46.956Z,85.47
2018-01-19T10:35:13.086Z,85.29
2018-01-19T10:37:39.255Z,84.53
2018-01-19T10:40:05.433Z,84.62
2018-01-19T10:42:31.629Z,85.13
2018-01-19T10:44:57.782Z,84.52
2018-01-19T10:47:23.932Z,84.32
2018-01-19T10:49:50.116Z,84.30
2018-01-19T10:52:16.303Z,84.42
2018-01-19T10:54:42.450Z,84.42
2018-01-19T10:57:08.663Z,85.03
2018-01-19T10:59:34.855Z,84.29
2018-01-19T11:02:01.060Z,84.12
2018-01-19T11:04:27.236Z,83.65
2018-01-19T11:06:53.395Z,83.83
2018-01-19T11:09:19.542Z,82.88
2018-01-19T11:11:45.640Z,81.93
2018-01-19T11:14:11.793Z,82.93
2018-01-19T11:16:37.909Z,83.35
2018-01-19T11:19:04.033Z,82.75
2018-01-19T11:21:30.425Z,81.98
2018-01-19T11:23:56.655Z,82.46
2018-01-19T11:26:22.884Z,81.70
2018-01-19T11:28:49.315Z,81.77
2018-01-19T11:31:15.578Z,81.38
2018-01-19T11:33:41.812Z,81.11
2018-01-19T11:36:07.990Z,81.06
2018-01-19T11:38:34.178Z,81.01
2018-01-19T11:41:00.415Z,81.21
2018-01-19T11:43:26.649Z,81.32
2018-01-19T11:45:52.845Z,81.96
2018-01-19T11:48:19.034Z,81.22
2018-01-19T11:50:45.247Z,79.45
2018-01-19T11:53:11.467Z,80.35
2018-01-19T11:55:37.641Z,80.09
2018-01-19T11:58:03.854Z,79.33
2018-01-19T12:00:30.083Z,80.62
2018-01-19T12:02:56.294Z,79.84
2018-01-19T12:05:22.426Z,79.33
2018-01-19T12:07:48.626Z,80.18
2018-01-19T12:10:15.095Z,79.12
2018-01-19T12:12:41.320Z,80.14
2018-01-19T12:15:07.531Z,79.90
2018-01-19T12:17:33.697Z,78.99
2018-01-19T12:19:59.918Z,78.22
2018-01-19T12:22:26.063Z,76.69
2018-01-19T12:24:52.354Z,75.28
2018-01-19T12:27:18.555Z,75.51
2018-01-19T12:29:44.764Z,74.89
2018-01-19T12:32:11.501Z,74.20
2018-01-19T12:34:37.796Z,74.08
2018-01-19T12:37:03.924Z,72.04
2018-01-19T12:39:30.076Z,73.18
2018-01-19T12:41:56.317Z,73.74
2018-01-19T12:44:22.473Z,75.22
2018-01-19T12:46:48.754Z,75.13
2018-01-19T12:49:14.902Z,74.64
2018-01-19T12:51:41.239Z,73.04
2018-01-19T12:54:07.429Z,72.96
2018-01-19T12:56:33.563Z,71.12
2018-01-19T12:58:59.835Z,73.39
2018-01-19T13:01:26.098Z,71.52
2018-01-19T13:03:52.313Z,71.88
2018-01-19T13:06:18.465Z,73.09
2018-01-19T13:08:44.712Z,71.95
2018-01-19T13:11:10.942Z,71.89
2018-01-19T13:13:37.341Z,71.67
2018-01-19T13:16:03.725Z,71.62
2018-01-19T13:18:29.904Z,70.11
2018-01-19T13:20:56.093Z,69.05
2018-01-19T13:23:22.210Z,70.13
2018-01-19T13:25:48.333Z,70.57
2018-01-19T13:28:14.481Z,68.49
2018-01-19T13:30:40.655Z,68.02
2018-01-19T13:33:06.747Z,67.96
2018-01-19T13:35:32.903Z,68.57
2018-01-19T13:37:59.096Z,67.49
2018-01-19T13:40:25.264Z,66.24
2018-01-19T13:42:51.459Z,67.14
2018-01-19T13:45:17.568Z,66.88
2018-01-19T13:47:43.678Z,66.42
2018-01-19T13:50:09.961Z,65.06
2018-01-19T13:52:36.155Z,63.07
2018-01-19T13:55:02.406Z,64.18
2018-01-19T13:57:28.579Z,62.18
2018-01-19T13:59:54.788Z,63.97
2018-01-19T14:02:21.020Z,65.25
2018-01-19T14:04:47.179Z,66.74
2018-01-19T14:07:13.437Z,65.52
2018-01-19T14:09:39.615Z,67.03
2018-01-19T14:12:05.882Z,66.30
2018-01-19T14:14:32.947Z,65.55
2018-01-19T14:16:59.106Z,66.48
2018-01-19T14:19:25.345Z,66.28
2018-01-19T14:21:51.565Z,67.64
2018-01-19T14:24:17.801Z,65.05
2018-01-19T14:26:44.003Z,66.33
2018-01-19T14:29:10.213Z,64.64
2018-01-19T14:31:36.406Z,65.52
2018-01-19T14:34:02.608Z,65.48
2018-01-19T14:36:28.850Z,66.55
2018-01-19T14:38:55.069Z,65.81
2018-01-19T14:41:21.322Z,67.06
2018-01-19T14:43:47.573Z,66.40
2018-01-19T14:46:13.753Z,67.12
2018-01-19T14:48:40.594Z,67.03
2018-01-19T14:51:06.827Z,68.38
2018-01-19T14:53:32.949Z,69.35
2018-01-19T14:55:59.088Z,69.18
2018-01-19T14:58:25.264Z,70.22
2018-01-19T15:00:51.480Z,70.57
2018-01-19T15:03:17.711Z,71.84
2018-01-19T15:05:43.931Z,71.47
2018-01-19T15:10:46.197Z,73.09
2018-01-19T15:13:12.394Z,73.19
2018-01-19T15:15:45.356Z,72.76
2018-01-19T15:18:11.634Z,73.19
2018-01-19T15:20:37.839Z,73.24
2018-01-19T15:23:04.013Z,72.63
2018-01-19T15:25:30.291Z,72.69
2018-01-19T15:27:56.507Z,71.83
2018-01-19T15:30:22.675Z,73.48
2018-01-19T15:32:49.021Z,72.55
2018-01-19T15:35:15.389Z,73.07
2018-01-19T15:37:41.718Z,72.93
2018-01-19T15:40:08.101Z,73.07
2018-01-19T15:42:34.396Z,72.67
2018-01-19T15:45:00.586Z,73.57
2018-01-19T15:47:26.857Z,74.09
2018-01-19T15:49:53.193Z,74.12
2018-01-19T15:52:19.461Z,73.76
2018-01-19T15:54:45.621Z,73.54
2018-01-19T15:57:11.769Z,73.44
2018-01-19T15:59:38.035Z,74.14
2018-01-19T16:02:04.262Z,74.31
2018-01-19T16:04:30.434Z,73.94
2018-01-19T16:06:56.576Z,73.96
2018-01-19T16:09:22.759Z,74.68
2018-01-19T16:11:49.020Z,74.55
2018-01-19T16:14:15.240Z,74.75
2018-01-19T16:16:43.816Z,74.50
2018-01-19T16:19:09.979Z,74.53
2018-01-19T16:21:36.188Z,74.09
2018-01-19T16:24:02.421Z,74.89
2018-01-19T16:26:28.574Z,74.90
2018-01-19T16:28:54.707Z,74.49
2018-01-19T16:31:20.975Z,74.31
2018-01-19T16:33:47.129Z,74.86
2018-01-19T16:36:13.282Z,74.62
2018-01-19T16:38:39.489Z,74.69
2018-01-19T16:41:05.698Z,74.64
2018-01-19T16:43:32.008Z,74.80
2018-01-19T16:45:58.804Z,75.24
2018-01-19T16:48:25.050Z,75.29
2018-01-19T16:50:51.228Z,74.59
2018-01-19T16:53:17.378Z,74.42
2018-01-19T16:55:43.506Z,75.08
2018-01-19T16:58:09.629Z,75.12
2018-01-19T17:00:35.788Z,75.56
2018-01-19T17:03:01.940Z,75.80
2018-01-19T17:05:28.045Z,75.82
2018-01-19T17:07:54.239Z,76.20
2018-01-19T17:10:20.338Z,76.35
2018-01-19T17:12:46.533Z,76.23
2018-01-19T17:15:12.654Z,76.54
2018-01-19T17:17:38.755Z,76.52
2018-01-19T17:20:04.923Z,76.38
2018-01-19T17:22:31.100Z,77.30
2018-01-19T17:24:57.919Z,77.00
2018-01-19T17:27:24.080Z,77.15
2018-01-19T17:29:50.196Z,77.49
2018-01-19T17:32:16.346Z,77.47
2018-01-19T17:34:42.511Z,77.78
2018-01-19T17:37:08.639Z,77.65
2018-01-19T17:39:34.752Z,77.71
2018-01-19T17:42:00.932Z,77.74
2018-01-19T17:44:27.052Z,77.66
2018-01-19T17:46:53.200Z,77.90
2018-01-19T17:49:19.356Z,78.10
2018-01-19T17:51:45.529Z,78.55
2018-01-19T18:09:17.449Z,78.84
2018-01-19T18:11:43.792Z,79.23
2018-01-19T18:14:09.979Z,79.27
2018-01-19T18:16:36.094Z,79.18
2018-01-19T18:19:02.255Z,79.12
2018-01-19T18:21:28.512Z,79.12
2018-01-19T18:23:54.629Z,78.92
2018-01-19T18:26:20.811Z,78.81
2018-01-19T18:28:47.079Z,78.98
2018-01-19T18:31:13.222Z,78.62
2018-01-19T18:33:39.407Z,78.20
2018-01-19T18:36:05.657Z,78.56
2018-01-19T18:38:31.771Z,78.81
2018-01-19T18:40:57.924Z,78.78
2018-01-19T18:43:24.118Z,78.57
2018-01-19T18:45:50.246Z,78.65
2018-01-19T18:48:16.384Z,78.70
2018-01-19T18:50:42.614Z,78.78
2018-01-19T18:53:08.846Z,78.87
2018-01-19T18:55:34.976Z,79.06
2018-01-19T18:58:01.096Z,79.27
2018-01-19T19:00:29.235Z,79.73
2018-01-19T19:02:55.601Z,79.51
2018-01-19T19:05:21.803Z,79.44
2018-01-19T19:07:47.999Z,79.14
2018-01-19T19:10:14.215Z,79.54
2018-01-19T19:12:40.464Z,79.56
2018-01-19T19:15:06.632Z,79.67
2018-01-19T19:17:32.874Z,79.85
2018-01-19T19:19:59.102Z,80.13
2018-01-19T19:22:25.344Z,80.22
2018-01-19T19:24:51.602Z,79.88
2018-01-19T19:27:17.836Z,79.30
2018-01-19T19:29:44.005Z,78.80
2018-01-19T19:32:10.442Z,78.37
2018-01-19T19:34:36.625Z,77.89
2018-01-19T19:37:02.858Z,77.71
2018-01-19T19:39:29.102Z,77.31
2018-01-19T19:41:55.381Z,76.85
2018-01-19T19:44:21.548Z,77.18
2018-01-19T19:46:47.719Z,77.18
2018-01-19T19:49:13.943Z,77.11
2018-01-19T19:51:40.177Z,76.81
2018-01-19T19:54:06.464Z,76.88
2018-01-19T19:56:32.629Z,76.51
2018-01-19T19:58:58.790Z,76.76
2018-01-19T20:01:25.128Z,76.43
2018-01-19T20:03:51.452Z,76.44
2018-01-19T20:06:17.660Z,76.69
2018-01-19T20:08:43.898Z,76.58
2018-01-19T20:11:10.154Z,75.95
2018-01-19T20:13:36.448Z,76.49
2018-01-19T20:16:02.652Z,76.00
2018-01-19T20:18:28.838Z,75.94
2018-01-19T20:20:55.013Z,76.34
2018-01-19T20:23:21.283Z,76.03
2018-01-19T20:25:47.478Z,76.35
2018-01-19T20:28:13.729Z,76.15
2018-01-19T20:30:39.919Z,75.79
2018-01-19T20:33:06.153Z,76.37
2018-01-19T20:35:32.493Z,76.30
2018-01-19T20:37:58.708Z,76.42
2018-01-19T20:40:24.962Z,77.08
2018-01-19T20:42:51.339Z,76.74
2018-01-19T20:45:17.557Z,76.38
2018-01-19T20:47:43.769Z,76.93
2018-01-19T20:50:10.025Z,77.26
2018-01-19T20:52:36.298Z,77.43
2018-01-19T20:55:02.609Z,78.07
2018-01-19T20:57:29.780Z,78.02
2018-01-19T20:59:56.051Z,78.21
2018-01-19T21:02:22.387Z,78.30
2018-01-19T21:04:48.576Z,78.61
2018-01-19T21:07:14.840Z,78.92
2018-01-19T21:09:41.148Z,78.78
2018-01-19T21:12:07.544Z,78.80
2018-01-19T21:14:33.852Z,78.96
2018-01-19T21:17:00.068Z,78.92
2018-01-19T21:19:26.241Z,79.51
2018-01-19T21:21:52.498Z,79.35
2018-01-19T21:24:18.767Z,79.32
2018-01-19T21:26:44.992Z,79.36
2018-01-19T21:29:11.180Z,79.43
2018-01-19T21:31:37.408Z,79.28
2018-01-19T21:34:03.721Z,79.47
2018-01-19T21:36:30.024Z,79.31
2018-01-19T21:38:56.199Z,79.34
2018-01-19T21:41:22.396Z,78.94
2018-01-19T21:43:48.693Z,78.36
2018-01-19T21:46:14.852Z,78.17
2018-01-19T21:48:41.028Z,78.12
2018-01-19T21:51:07.232Z,78.14
2018-01-19T21:53:33.456Z,78.20
2018-01-19T21:55:59.801Z,77.97
2018-01-19T21:58:26.013Z,77.48
2018-01-19T22:00:52.217Z,77.24
2018-01-19T22:03:18.457Z,77.22
2018-01-19T22:05:44.635Z,76.72
2018-01-19T22:08:10.808Z,76.69
2018-01-19T22:10:37.045Z,76.74
2018-01-19T22:13:03.244Z,76.96
2018-01-19T22:15:29.602Z,77.42
2018-01-19T22:17:55.801Z,77.80
2018-01-19T22:20:22.019Z,77.89
2018-01-19T22:22:48.285Z,78.03
2018-01-19T22:25:14.435Z,78.16
2018-01-19T22:27:40.628Z,78.61
2018-01-19T22:30:06.930Z,78.42
2018-01-19T22:32:33.082Z,79.04
2018-01-19T22:34:59.294Z,79.33
2018-01-19T22:37:25.491Z,79.31
2018-01-19T22:39:51.791Z,79.62
2018-01-19T22:42:18.069Z,79.67
2018-01-19T22:44:44.268Z,80.00
2018-01-19T22:47:10.427Z,80.04
2018-01-19T22:49:36.601Z,80.61
2018-01-19T22:52:02.790Z,80.59
2018-01-19T22:54:29.006Z,80.74
2018-01-19T22:56:55.192Z,80.74
2018-01-19T22:59:21.386Z,80.76
2018-01-19T23:01:47.609Z,80.99
2018-01-19T23:04:13.860Z,80.91
2018-01-19T23:06:40.029Z,81.11
2018-01-19T23:09:06.183Z,81.35
2018-01-19T23:11:32.401Z,81.37
2018-01-19T23:13:58.709Z,81.54
2018-01-19T23:16:25.129Z,81.47
2018-01-19T23:18:51.309Z,81.36
2018-01-19T23:21:17.516Z,81.29
2018-01-19T23:23:43.742Z,81.20
2018-01-19T23:26:09.903Z,81.40
2018-01-19T23:28:36.110Z,80.95
2018-01-19T23:31:02.292Z,80.76
2018-01-19T23:33:28.462Z,81.14
2018-01-19T23:35:54.656Z,81.09
2018-01-19T23:38:20.846Z,80.86
2018-01-19T23:40:47.073Z,80.66
2018-01-19T23:43:13.302Z,80.84
2018-01-19T23:45:39.463Z,80.91
2018-01-19T23:48:05.628Z,80.71
2018-01-19T23:50:31.821Z,80.73
2018-01-19T23:52:57.974Z,80.95
2018-01-19T23:55:24.139Z,80.82
2018-01-19T23:57:50.308Z,80.86
